sensor_id;sensor_type;location;lat;lon;timestamp;temperature;humidity
18002;DHT22;9126;48.160;17.130;2022-08-03T00:00:58;26.00;41.40
18002;DHT22;9126;48.160;17.130;2022-08-03T00:03:25;26.00;41.50
18002;DHT22;9126;48.160;17.130;2022-08-03T00:05:52;26.00;41.60
18002;DHT22;9126;48.160;17.130;2022-08-03T00:08:20;26.00;41.70
18002;DHT22;9126;48.160;17.130;2022-08-03T00:10:47;25.90;41.70
18002;DHT22;9126;48.160;17.130;2022-08-03T00:13:18;25.90;41.90
18002;DHT22;9126;48.160;17.130;2022-08-03T00:15:49;25.90;41.90
18002;DHT22;9126;48.160;17.130;2022-08-03T00:18:16;25.80;41.90
18002;DHT22;9126;48.160;17.130;2022-08-03T00:20:44;25.80;42.00
18002;DHT22;9126;48.160;17.130;2022-08-03T00:23:11;25.80;42.10
18002;DHT22;9126;48.160;17.130;2022-08-03T00:25:38;25.70;42.20
18002;DHT22;9126;48.160;17.130;2022-08-03T00:28:05;25.70;42.20
18002;DHT22;9126;48.160;17.130;2022-08-03T00:30:34;25.70;42.40
18002;DHT22;9126;48.160;17.130;2022-08-03T00:33:02;25.70;42.50
18002;DHT22;9126;48.160;17.130;2022-08-03T00:35:30;25.60;42.60
18002;DHT22;9126;48.160;17.130;2022-08-03T00:37:57;25.70;42.80
18002;DHT22;9126;48.160;17.130;2022-08-03T00:40:24;25.60;42.90
18002;DHT22;9126;48.160;17.130;2022-08-03T00:42:53;25.60;43.00
18002;DHT22;9126;48.160;17.130;2022-08-03T00:45:25;25.60;43.10
18002;DHT22;9126;48.160;17.130;2022-08-03T00:47:54;25.60;43.20
18002;DHT22;9126;48.160;17.130;2022-08-03T00:50:23;25.50;43.30
18002;DHT22;9126;48.160;17.130;2022-08-03T00:52:52;25.50;43.40
18002;DHT22;9126;48.160;17.130;2022-08-03T00:55:19;25.50;43.50
18002;DHT22;9126;48.160;17.130;2022-08-03T00:57:47;25.50;43.70
18002;DHT22;9126;48.160;17.130;2022-08-03T01:00:16;25.40;43.70
18002;DHT22;9126;48.160;17.130;2022-08-03T01:02:44;25.40;43.90
18002;DHT22;9126;48.160;17.130;2022-08-03T01:05:12;25.40;44.00
18002;DHT22;9126;48.160;17.130;2022-08-03T01:07:48;25.40;44.10
18002;DHT22;9126;48.160;17.130;2022-08-03T01:10:26;25.30;44.20
18002;DHT22;9126;48.160;17.130;2022-08-03T01:12:58;25.40;44.30
18002;DHT22;9126;48.160;17.130;2022-08-03T01:15:33;25.40;44.40
18002;DHT22;9126;48.160;17.130;2022-08-03T01:18:07;25.30;44.40
18002;DHT22;9126;48.160;17.130;2022-08-03T01:20:41;25.30;44.50
18002;DHT22;9126;48.160;17.130;2022-08-03T01:23:34;25.30;44.50
18002;DHT22;9126;48.160;17.130;2022-08-03T01:26:11;25.30;44.60
18002;DHT22;9126;48.160;17.130;2022-08-03T01:29:02;25.20;44.60
18002;DHT22;9126;48.160;17.130;2022-08-03T01:31:38;25.20;44.70
18002;DHT22;9126;48.160;17.130;2022-08-03T01:34:08;25.20;44.80
18002;DHT22;9126;48.160;17.130;2022-08-03T01:36:39;25.20;45.00
18002;DHT22;9126;48.160;17.130;2022-08-03T01:39:09;25.10;45.00
18002;DHT22;9126;48.160;17.130;2022-08-03T01:41:43;25.10;45.20
18002;DHT22;9126;48.160;17.130;2022-08-03T01:44:12;25.10;45.30
18002;DHT22;9126;48.160;17.130;2022-08-03T01:46:42;25.10;45.40
18002;DHT22;9126;48.160;17.130;2022-08-03T01:49:11;25.10;45.50
18002;DHT22;9126;48.160;17.130;2022-08-03T01:51:41;25.00;45.50
18002;DHT22;9126;48.160;17.130;2022-08-03T01:54:09;25.00;45.60
18002;DHT22;9126;48.160;17.130;2022-08-03T01:56:37;25.00;45.70
18002;DHT22;9126;48.160;17.130;2022-08-03T01:59:06;25.00;45.90
18002;DHT22;9126;48.160;17.130;2022-08-03T02:01:35;24.90;45.90
18002;DHT22;9126;48.160;17.130;2022-08-03T02:04:05;24.90;46.10
18002;DHT22;9126;48.160;17.130;2022-08-03T02:06:34;24.90;46.20
18002;DHT22;9126;48.160;17.130;2022-08-03T02:09:03;24.90;46.30
18002;DHT22;9126;48.160;17.130;2022-08-03T02:11:33;24.80;46.40
18002;DHT22;9126;48.160;17.130;2022-08-03T02:14:03;24.80;46.50
18002;DHT22;9126;48.160;17.130;2022-08-03T02:16:33;24.80;46.70
18002;DHT22;9126;48.160;17.130;2022-08-03T02:19:03;24.70;46.70
18002;DHT22;9126;48.160;17.130;2022-08-03T02:21:32;24.70;46.80
18002;DHT22;9126;48.160;17.130;2022-08-03T02:24:01;24.70;46.90
18002;DHT22;9126;48.160;17.130;2022-08-03T02:26:30;24.70;47.00
18002;DHT22;9126;48.160;17.130;2022-08-03T02:29:01;24.70;47.10
18002;DHT22;9126;48.160;17.130;2022-08-03T02:31:33;24.60;47.20
18002;DHT22;9126;48.160;17.130;2022-08-03T02:34:05;24.60;47.30
18002;DHT22;9126;48.160;17.130;2022-08-03T02:36:37;24.60;47.30
18002;DHT22;9126;48.160;17.130;2022-08-03T02:39:06;24.60;47.50
18002;DHT22;9126;48.160;17.130;2022-08-03T02:41:39;24.60;47.60
18002;DHT22;9126;48.160;17.130;2022-08-03T02:44:08;24.50;47.70
18002;DHT22;9126;48.160;17.130;2022-08-03T02:46:38;24.50;47.80
18002;DHT22;9126;48.160;17.130;2022-08-03T02:49:08;24.50;47.90
18002;DHT22;9126;48.160;17.130;2022-08-03T02:51:37;24.50;48.00
18002;DHT22;9126;48.160;17.130;2022-08-03T02:54:06;24.50;48.10
18002;DHT22;9126;48.160;17.130;2022-08-03T02:56:36;24.50;48.20
18002;DHT22;9126;48.160;17.130;2022-08-03T02:59:05;24.40;48.20
18002;DHT22;9126;48.160;17.130;2022-08-03T03:01:32;24.40;48.20
18002;DHT22;9126;48.160;17.130;2022-08-03T03:04:00;24.40;48.30
18002;DHT22;9126;48.160;17.130;2022-08-03T03:06:29;24.40;48.40
18002;DHT22;9126;48.160;17.130;2022-08-03T03:08:57;24.40;48.50
18002;DHT22;9126;48.160;17.130;2022-08-03T03:11:25;24.30;48.50
18002;DHT22;9126;48.160;17.130;2022-08-03T03:13:52;24.30;48.60
18002;DHT22;9126;48.160;17.130;2022-08-03T03:16:24;24.30;48.60
18002;DHT22;9126;48.160;17.130;2022-08-03T03:18:53;24.30;48.80
18002;DHT22;9126;48.160;17.130;2022-08-03T03:21:21;24.30;48.90
18002;DHT22;9126;48.160;17.130;2022-08-03T03:23:51;24.20;49.00
18002;DHT22;9126;48.160;17.130;2022-08-03T03:26:19;24.20;49.10
18002;DHT22;9126;48.160;17.130;2022-08-03T03:28:46;24.20;49.20
18002;DHT22;9126;48.160;17.130;2022-08-03T03:31:14;24.20;49.30
18002;DHT22;9126;48.160;17.130;2022-08-03T03:33:41;24.10;49.40
18002;DHT22;9126;48.160;17.130;2022-08-03T03:36:09;24.10;49.40
18002;DHT22;9126;48.160;17.130;2022-08-03T03:38:36;24.10;49.60
18002;DHT22;9126;48.160;17.130;2022-08-03T03:41:05;24.10;49.70
18002;DHT22;9126;48.160;17.130;2022-08-03T03:43:33;24.10;49.80
18002;DHT22;9126;48.160;17.130;2022-08-03T03:46:01;24.10;49.90
18002;DHT22;9126;48.160;17.130;2022-08-03T03:48:28;24.10;50.00
18002;DHT22;9126;48.160;17.130;2022-08-03T03:50:55;24.10;50.10
18002;DHT22;9126;48.160;17.130;2022-08-03T03:53:24;24.10;50.10
18002;DHT22;9126;48.160;17.130;2022-08-03T03:55:52;24.10;50.10
18002;DHT22;9126;48.160;17.130;2022-08-03T03:58:20;24.10;50.20
18002;DHT22;9126;48.160;17.130;2022-08-03T04:00:47;24.10;50.10
18002;DHT22;9126;48.160;17.130;2022-08-03T04:03:15;24.10;50.10
18002;DHT22;9126;48.160;17.130;2022-08-03T04:05:42;24.10;50.10
18002;DHT22;9126;48.160;17.130;2022-08-03T04:08:27;24.10;50.20
18002;DHT22;9126;48.160;17.130;2022-08-03T04:11:15;24.20;50.20
18002;DHT22;9126;48.160;17.130;2022-08-03T04:13:49;24.30;50.20
18002;DHT22;9126;48.160;17.130;2022-08-03T04:16:19;24.30;50.30
18002;DHT22;9126;48.160;17.130;2022-08-03T04:18:58;24.40;50.30
18002;DHT22;9126;48.160;17.130;2022-08-03T04:21:27;24.40;50.30
18002;DHT22;9126;48.160;17.130;2022-08-03T04:24:02;24.40;50.30
18002;DHT22;9126;48.160;17.130;2022-08-03T04:26:33;24.40;50.40
18002;DHT22;9126;48.160;17.130;2022-08-03T04:29:03;24.40;50.50
18002;DHT22;9126;48.160;17.130;2022-08-03T04:31:31;24.40;50.60
18002;DHT22;9126;48.160;17.130;2022-08-03T04:33:59;24.40;50.60
18002;DHT22;9126;48.160;17.130;2022-08-03T04:36:31;24.50;50.70
18002;DHT22;9126;48.160;17.130;2022-08-03T04:39:02;24.50;50.70
18002;DHT22;9126;48.160;17.130;2022-08-03T04:41:31;24.50;50.70
18002;DHT22;9126;48.160;17.130;2022-08-03T04:44:00;24.50;50.70
18002;DHT22;9126;48.160;17.130;2022-08-03T04:46:33;24.60;51.40
18002;DHT22;9126;48.160;17.130;2022-08-03T04:49:01;24.60;50.90
18002;DHT22;9126;48.160;17.130;2022-08-03T04:51:29;24.60;51.00
18002;DHT22;9126;48.160;17.130;2022-08-03T04:53:57;24.70;51.00
18002;DHT22;9126;48.160;17.130;2022-08-03T04:56:24;24.70;51.00
18002;DHT22;9126;48.160;17.130;2022-08-03T04:58:51;24.70;50.90
18002;DHT22;9126;48.160;17.130;2022-08-03T05:01:19;24.80;50.80
18002;DHT22;9126;48.160;17.130;2022-08-03T05:03:48;24.80;50.80
18002;DHT22;9126;48.160;17.130;2022-08-03T05:06:16;24.90;50.70
18002;DHT22;9126;48.160;17.130;2022-08-03T05:08:44;24.90;50.70
18002;DHT22;9126;48.160;17.130;2022-08-03T05:11:11;24.90;51.10
18002;DHT22;9126;48.160;17.130;2022-08-03T05:13:38;24.90;50.50
18002;DHT22;9126;48.160;17.130;2022-08-03T05:16:05;25.00;50.40
18002;DHT22;9126;48.160;17.130;2022-08-03T05:18:32;25.00;50.20
18002;DHT22;9126;48.160;17.130;2022-08-03T05:21:02;25.10;50.00
18002;DHT22;9126;48.160;17.130;2022-08-03T05:23:29;25.10;49.80
18002;DHT22;9126;48.160;17.130;2022-08-03T05:25:56;25.10;49.60
18002;DHT22;9126;48.160;17.130;2022-08-03T05:28:23;25.10;49.40
18002;DHT22;9126;48.160;17.130;2022-08-03T05:30:51;25.20;49.20
18002;DHT22;9126;48.160;17.130;2022-08-03T05:33:18;25.30;49.10
18002;DHT22;9126;48.160;17.130;2022-08-03T05:35:45;25.30;48.90
18002;DHT22;9126;48.160;17.130;2022-08-03T05:38:13;25.30;48.70
18002;DHT22;9126;48.160;17.130;2022-08-03T05:40:40;25.40;48.60
18002;DHT22;9126;48.160;17.130;2022-08-03T05:43:07;25.40;48.30
18002;DHT22;9126;48.160;17.130;2022-08-03T05:45:35;25.40;48.10
18002;DHT22;9126;48.160;17.130;2022-08-03T05:48:03;25.40;47.90
18002;DHT22;9126;48.160;17.130;2022-08-03T05:50:30;25.40;47.80
18002;DHT22;9126;48.160;17.130;2022-08-03T05:52:57;25.50;47.70
18002;DHT22;9126;48.160;17.130;2022-08-03T05:55:26;25.50;47.40
18002;DHT22;9126;48.160;17.130;2022-08-03T05:57:53;25.60;47.20
18002;DHT22;9126;48.160;17.130;2022-08-03T06:00:22;25.60;47.00
18002;DHT22;9126;48.160;17.130;2022-08-03T06:02:52;25.70;46.90
18002;DHT22;9126;48.160;17.130;2022-08-03T06:05:19;25.70;46.80
18002;DHT22;9126;48.160;17.130;2022-08-03T06:07:46;25.80;46.70
18002;DHT22;9126;48.160;17.130;2022-08-03T06:10:14;25.80;46.50
18002;DHT22;9126;48.160;17.130;2022-08-03T06:12:42;25.80;46.50
18002;DHT22;9126;48.160;17.130;2022-08-03T06:15:12;25.90;47.00
18002;DHT22;9126;48.160;17.130;2022-08-03T06:17:46;26.00;46.40
18002;DHT22;9126;48.160;17.130;2022-08-03T06:20:15;26.00;46.30
18002;DHT22;9126;48.160;17.130;2022-08-03T06:22:42;26.00;46.20
18002;DHT22;9126;48.160;17.130;2022-08-03T06:25:09;26.10;46.20
18002;DHT22;9126;48.160;17.130;2022-08-03T06:27:37;26.10;46.00
18002;DHT22;9126;48.160;17.130;2022-08-03T06:30:08;26.10;45.90
18002;DHT22;9126;48.160;17.130;2022-08-03T06:32:36;26.10;45.70
18002;DHT22;9126;48.160;17.130;2022-08-03T06:35:04;26.10;45.60
18002;DHT22;9126;48.160;17.130;2022-08-03T06:37:32;26.20;45.60
18002;DHT22;9126;48.160;17.130;2022-08-03T06:40:08;26.20;45.50
18002;DHT22;9126;48.160;17.130;2022-08-03T06:42:36;26.30;45.50
18002;DHT22;9126;48.160;17.130;2022-08-03T06:45:03;26.40;45.40
18002;DHT22;9126;48.160;17.130;2022-08-03T06:47:32;26.40;45.20
18002;DHT22;9126;48.160;17.130;2022-08-03T06:49:59;26.40;45.00
18002;DHT22;9126;48.160;17.130;2022-08-03T06:52:26;26.50;44.90
18002;DHT22;9126;48.160;17.130;2022-08-03T06:54:54;26.50;44.80
18002;DHT22;9126;48.160;17.130;2022-08-03T06:57:21;26.60;44.70
18002;DHT22;9126;48.160;17.130;2022-08-03T06:59:49;26.70;44.50
18002;DHT22;9126;48.160;17.130;2022-08-03T07:02:16;26.70;44.30
18002;DHT22;9126;48.160;17.130;2022-08-03T07:04:46;26.70;44.00
18002;DHT22;9126;48.160;17.130;2022-08-03T07:07:13;26.80;43.90
18002;DHT22;9126;48.160;17.130;2022-08-03T07:09:43;26.80;43.80
18002;DHT22;9126;48.160;17.130;2022-08-03T07:12:10;26.80;43.90
18002;DHT22;9126;48.160;17.130;2022-08-03T07:14:37;26.90;44.00
18002;DHT22;9126;48.160;17.130;2022-08-03T07:17:04;26.90;44.00
18002;DHT22;9126;48.160;17.130;2022-08-03T07:19:31;27.00;44.10
18002;DHT22;9126;48.160;17.130;2022-08-03T07:21:59;26.90;44.10
18002;DHT22;9126;48.160;17.130;2022-08-03T07:24:28;27.00;44.20
18002;DHT22;9126;48.160;17.130;2022-08-03T07:26:55;27.00;44.30
18002;DHT22;9126;48.160;17.130;2022-08-03T07:29:22;27.00;44.40
18002;DHT22;9126;48.160;17.130;2022-08-03T07:31:49;27.00;44.50
18002;DHT22;9126;48.160;17.130;2022-08-03T07:34:17;27.10;44.70
18002;DHT22;9126;48.160;17.130;2022-08-03T07:36:44;27.20;44.70
18002;DHT22;9126;48.160;17.130;2022-08-03T07:39:12;27.10;44.70
18002;DHT22;9126;48.160;17.130;2022-08-03T07:41:39;27.10;44.80
18002;DHT22;9126;48.160;17.130;2022-08-03T07:44:06;27.20;44.90
18002;DHT22;9126;48.160;17.130;2022-08-03T07:46:36;27.30;45.00
18002;DHT22;9126;48.160;17.130;2022-08-03T07:49:03;27.30;45.00
18002;DHT22;9126;48.160;17.130;2022-08-03T07:51:30;27.40;44.90
18002;DHT22;9126;48.160;17.130;2022-08-03T07:53:57;27.40;44.90
18002;DHT22;9126;48.160;17.130;2022-08-03T07:56:27;27.50;45.40
18002;DHT22;9126;48.160;17.130;2022-08-03T07:58:54;27.50;44.80
18002;DHT22;9126;48.160;17.130;2022-08-03T08:01:22;27.60;44.80
18002;DHT22;9126;48.160;17.130;2022-08-03T08:03:49;27.70;44.80
18002;DHT22;9126;48.160;17.130;2022-08-03T08:06:17;27.80;44.70
18002;DHT22;9126;48.160;17.130;2022-08-03T08:08:44;27.90;44.60
18002;DHT22;9126;48.160;17.130;2022-08-03T08:11:11;27.90;44.20
18002;DHT22;9126;48.160;17.130;2022-08-03T08:13:39;27.90;43.90
18002;DHT22;9126;48.160;17.130;2022-08-03T08:16:06;28.00;43.70
18002;DHT22;9126;48.160;17.130;2022-08-03T08:18:36;28.10;43.60
18002;DHT22;9126;48.160;17.130;2022-08-03T08:21:04;28.10;43.50
18002;DHT22;9126;48.160;17.130;2022-08-03T08:23:31;28.10;43.50
18002;DHT22;9126;48.160;17.130;2022-08-03T08:25:58;28.20;43.50
18002;DHT22;9126;48.160;17.130;2022-08-03T08:28:25;28.20;43.30
18002;DHT22;9126;48.160;17.130;2022-08-03T08:30:54;28.20;43.20
18002;DHT22;9126;48.160;17.130;2022-08-03T08:33:21;28.30;43.00
18002;DHT22;9126;48.160;17.130;2022-08-03T08:35:48;28.30;42.90
18002;DHT22;9126;48.160;17.130;2022-08-03T08:38:14;28.30;42.80
18002;DHT22;9126;48.160;17.130;2022-08-03T08:40:42;28.40;42.70
18002;DHT22;9126;48.160;17.130;2022-08-03T08:43:09;28.50;42.80
18002;DHT22;9126;48.160;17.130;2022-08-03T08:45:36;28.60;42.50
18002;DHT22;9126;48.160;17.130;2022-08-03T08:48:06;28.70;42.30
18002;DHT22;9126;48.160;17.130;2022-08-03T08:50:38;28.70;42.00
18002;DHT22;9126;48.160;17.130;2022-08-03T08:53:11;28.80;41.70
18002;DHT22;9126;48.160;17.130;2022-08-03T08:55:41;28.80;41.40
18002;DHT22;9126;48.160;17.130;2022-08-03T08:58:18;28.90;41.40
18002;DHT22;9126;48.160;17.130;2022-08-03T09:00:47;28.90;41.30
18002;DHT22;9126;48.160;17.130;2022-08-03T09:03:17;29.00;41.10
18002;DHT22;9126;48.160;17.130;2022-08-03T09:05:45;29.10;40.80
18002;DHT22;9126;48.160;17.130;2022-08-03T09:08:12;29.20;40.50
18002;DHT22;9126;48.160;17.130;2022-08-03T09:10:40;29.30;40.30
18002;DHT22;9126;48.160;17.130;2022-08-03T09:13:07;29.30;40.10
18002;DHT22;9126;48.160;17.130;2022-08-03T09:15:34;29.40;40.10
18002;DHT22;9126;48.160;17.130;2022-08-03T09:18:03;29.40;39.90
18002;DHT22;9126;48.160;17.130;2022-08-03T09:20:33;29.40;39.80
18002;DHT22;9126;48.160;17.130;2022-08-03T09:23:02;29.50;39.30
18002;DHT22;9126;48.160;17.130;2022-08-03T09:25:32;29.50;39.00
18002;DHT22;9126;48.160;17.130;2022-08-03T09:28:08;29.60;39.10
18002;DHT22;9126;48.160;17.130;2022-08-03T09:30:36;29.60;39.50
18002;DHT22;9126;48.160;17.130;2022-08-03T09:33:04;29.50;38.90
18002;DHT22;9126;48.160;17.130;2022-08-03T09:35:40;29.60;38.90
18002;DHT22;9126;48.160;17.130;2022-08-03T09:38:15;29.60;38.80
18002;DHT22;9126;48.160;17.130;2022-08-03T09:40:42;29.60;38.50
18002;DHT22;9126;48.160;17.130;2022-08-03T09:43:10;29.70;38.40
18002;DHT22;9126;48.160;17.130;2022-08-03T09:45:39;29.70;38.20
18002;DHT22;9126;48.160;17.130;2022-08-03T09:48:21;29.60;37.60
18002;DHT22;9126;48.160;17.130;2022-08-03T09:50:50;29.60;37.40
18002;DHT22;9126;48.160;17.130;2022-08-03T09:53:18;29.70;37.50
18002;DHT22;9126;48.160;17.130;2022-08-03T09:55:53;29.80;37.40
18002;DHT22;9126;48.160;17.130;2022-08-03T09:58:21;29.90;37.30
18002;DHT22;9126;48.160;17.130;2022-08-03T10:00:56;30.00;37.10
18002;DHT22;9126;48.160;17.130;2022-08-03T10:03:25;30.00;36.90
18002;DHT22;9126;48.160;17.130;2022-08-03T10:05:54;29.90;36.70
18002;DHT22;9126;48.160;17.130;2022-08-03T10:08:22;30.00;36.50
18002;DHT22;9126;48.160;17.130;2022-08-03T10:10:50;30.10;36.60
18002;DHT22;9126;48.160;17.130;2022-08-03T10:13:20;30.20;36.70
18002;DHT22;9126;48.160;17.130;2022-08-03T10:15:48;30.30;36.60
18002;DHT22;9126;48.160;17.130;2022-08-03T10:18:15;30.40;36.50
18002;DHT22;9126;48.160;17.130;2022-08-03T10:20:49;30.40;36.30
18002;DHT22;9126;48.160;17.130;2022-08-03T10:23:19;30.50;36.20
18002;DHT22;9126;48.160;17.130;2022-08-03T10:25:50;30.50;36.10
18002;DHT22;9126;48.160;17.130;2022-08-03T10:28:18;30.50;36.10
18002;DHT22;9126;48.160;17.130;2022-08-03T10:30:48;30.60;36.10
18002;DHT22;9126;48.160;17.130;2022-08-03T10:33:19;30.70;35.90
18002;DHT22;9126;48.160;17.130;2022-08-03T10:35:53;30.80;35.80
18002;DHT22;9126;48.160;17.130;2022-08-03T10:38:28;30.90;35.80
18002;DHT22;9126;48.160;17.130;2022-08-03T10:40:55;31.00;35.50
18002;DHT22;9126;48.160;17.130;2022-08-03T10:43:26;31.00;35.20
18002;DHT22;9126;48.160;17.130;2022-08-03T10:45:55;31.10;35.30
18002;DHT22;9126;48.160;17.130;2022-08-03T10:48:22;31.20;35.20
18002;DHT22;9126;48.160;17.130;2022-08-03T10:50:51;31.20;35.00
18002;DHT22;9126;48.160;17.130;2022-08-03T10:56:39;31.30;34.90
18002;DHT22;9126;48.160;17.130;2022-08-03T10:59:56;31.50;34.50
18002;DHT22;9126;48.160;17.130;2022-08-03T11:03:04;31.60;34.40
18002;DHT22;9126;48.160;17.130;2022-08-03T11:05:33;31.70;34.30
18002;DHT22;9126;48.160;17.130;2022-08-03T11:08:27;31.80;34.30
18002;DHT22;9126;48.160;17.130;2022-08-03T11:10:59;31.80;34.00
18002;DHT22;9126;48.160;17.130;2022-08-03T11:13:29;31.80;33.90
18002;DHT22;9126;48.160;17.130;2022-08-03T11:16:01;31.80;33.70
18002;DHT22;9126;48.160;17.130;2022-08-03T11:18:29;31.90;33.50
18002;DHT22;9126;48.160;17.130;2022-08-03T11:20:59;31.90;33.20
18002;DHT22;9126;48.160;17.130;2022-08-03T11:23:40;31.90;33.00
18002;DHT22;9126;48.160;17.130;2022-08-03T11:26:13;32.00;32.80
18002;DHT22;9126;48.160;17.130;2022-08-03T11:28:43;32.00;32.80
18002;DHT22;9126;48.160;17.130;2022-08-03T11:31:44;32.10;32.80
18002;DHT22;9126;48.160;17.130;2022-08-03T11:34:15;32.10;32.70
18002;DHT22;9126;48.160;17.130;2022-08-03T11:37:17;32.20;32.80
18002;DHT22;9126;48.160;17.130;2022-08-03T11:39:45;32.20;32.60
18002;DHT22;9126;48.160;17.130;2022-08-03T11:42:37;32.30;32.60
18002;DHT22;9126;48.160;17.130;2022-08-03T11:45:06;32.50;32.60
18002;DHT22;9126;48.160;17.130;2022-08-03T11:47:37;32.60;32.40
18002;DHT22;9126;48.160;17.130;2022-08-03T11:50:06;32.80;32.30
18002;DHT22;9126;48.160;17.130;2022-08-03T11:52:38;32.90;31.90
18002;DHT22;9126;48.160;17.130;2022-08-03T11:55:13;33.10;31.70
18002;DHT22;9126;48.160;17.130;2022-08-03T11:57:40;33.20;31.50
18002;DHT22;9126;48.160;17.130;2022-08-03T12:00:27;33.30;31.40
18002;DHT22;9126;48.160;17.130;2022-08-03T12:03:00;33.50;31.00
18002;DHT22;9126;48.160;17.130;2022-08-03T12:05:45;33.40;30.70
18002;DHT22;9126;48.160;17.130;2022-08-03T12:08:14;33.50;30.60
18002;DHT22;9126;48.160;17.130;2022-08-03T12:10:47;33.50;30.40
18002;DHT22;9126;48.160;17.130;2022-08-03T12:13:15;33.50;30.30
18002;DHT22;9126;48.160;17.130;2022-08-03T12:15:49;33.60;30.30
18002;DHT22;9126;48.160;17.130;2022-08-03T12:18:18;33.60;30.10
18002;DHT22;9126;48.160;17.130;2022-08-03T12:20:46;33.70;30.10
18002;DHT22;9126;48.160;17.130;2022-08-03T12:23:13;33.60;30.00
18002;DHT22;9126;48.160;17.130;2022-08-03T12:25:41;33.60;30.10
18002;DHT22;9126;48.160;17.130;2022-08-03T12:28:12;33.60;30.00
18002;DHT22;9126;48.160;17.130;2022-08-03T12:30:41;33.30;29.90
18002;DHT22;9126;48.160;17.130;2022-08-03T12:33:21;33.30;30.50
18002;DHT22;9126;48.160;17.130;2022-08-03T12:36:00;33.30;30.00
18002;DHT22;9126;48.160;17.130;2022-08-03T12:38:29;33.30;30.10
18002;DHT22;9126;48.160;17.130;2022-08-03T12:40:58;33.30;30.10
18002;DHT22;9126;48.160;17.130;2022-08-03T12:43:25;33.30;30.20
18002;DHT22;9126;48.160;17.130;2022-08-03T12:46:06;33.40;30.30
18002;DHT22;9126;48.160;17.130;2022-08-03T12:48:35;33.40;30.10
18002;DHT22;9126;48.160;17.130;2022-08-03T12:51:08;33.70;30.10
18002;DHT22;9126;48.160;17.130;2022-08-03T12:53:36;33.80;30.00
18002;DHT22;9126;48.160;17.130;2022-08-03T12:56:04;33.90;29.90
18002;DHT22;9126;48.160;17.130;2022-08-03T12:58:33;34.00;29.90
18002;DHT22;9126;48.160;17.130;2022-08-03T13:01:04;34.20;29.70
18002;DHT22;9126;48.160;17.130;2022-08-03T13:03:40;34.40;29.50
18002;DHT22;9126;48.160;17.130;2022-08-03T13:06:11;34.50;29.40
18002;DHT22;9126;48.160;17.130;2022-08-03T13:08:38;34.50;29.40
18002;DHT22;9126;48.160;17.130;2022-08-03T13:11:22;34.60;29.30
18002;DHT22;9126;48.160;17.130;2022-08-03T13:13:49;34.70;29.10
18002;DHT22;9126;48.160;17.130;2022-08-03T13:16:17;34.80;28.90
18002;DHT22;9126;48.160;17.130;2022-08-03T13:18:45;35.00;28.80
18002;DHT22;9126;48.160;17.130;2022-08-03T13:21:13;35.10;28.70
18002;DHT22;9126;48.160;17.130;2022-08-03T13:23:41;35.00;28.60
18002;DHT22;9126;48.160;17.130;2022-08-03T13:26:08;35.00;28.60
18002;DHT22;9126;48.160;17.130;2022-08-03T13:28:36;35.10;28.60
18002;DHT22;9126;48.160;17.130;2022-08-03T13:31:03;35.40;28.50
18002;DHT22;9126;48.160;17.130;2022-08-03T13:33:30;35.70;28.40
18002;DHT22;9126;48.160;17.130;2022-08-03T13:35:59;36.00;28.20
18002;DHT22;9126;48.160;17.130;2022-08-03T13:38:26;36.20;27.90
18002;DHT22;9126;48.160;17.130;2022-08-03T13:40:53;36.30;27.70
18002;DHT22;9126;48.160;17.130;2022-08-03T13:43:20;36.30;27.60
18002;DHT22;9126;48.160;17.130;2022-08-03T13:45:48;36.40;27.40
18002;DHT22;9126;48.160;17.130;2022-08-03T13:48:15;36.50;27.40
18002;DHT22;9126;48.160;17.130;2022-08-03T13:50:42;36.60;27.20
18002;DHT22;9126;48.160;17.130;2022-08-03T13:53:10;36.90;27.50
18002;DHT22;9126;48.160;17.130;2022-08-03T13:55:37;37.20;26.90
18002;DHT22;9126;48.160;17.130;2022-08-03T13:58:06;37.30;26.80
18002;DHT22;9126;48.160;17.130;2022-08-03T14:00:37;37.30;26.80
18002;DHT22;9126;48.160;17.130;2022-08-03T14:03:08;37.40;26.80
18002;DHT22;9126;48.160;17.130;2022-08-03T14:05:35;37.70;26.70
18002;DHT22;9126;48.160;17.130;2022-08-03T14:08:04;38.00;26.30
18002;DHT22;9126;48.160;17.130;2022-08-03T14:10:34;38.20;26.00
18002;DHT22;9126;48.160;17.130;2022-08-03T14:13:02;38.20;25.60
18002;DHT22;9126;48.160;17.130;2022-08-03T14:15:32;38.50;25.50
18002;DHT22;9126;48.160;17.130;2022-08-03T14:17:59;38.60;25.30
18002;DHT22;9126;48.160;17.130;2022-08-03T14:20:26;38.70;25.10
18002;DHT22;9126;48.160;17.130;2022-08-03T14:22:54;39.00;25.00
18002;DHT22;9126;48.160;17.130;2022-08-03T14:25:21;39.30;25.00
18002;DHT22;9126;48.160;17.130;2022-08-03T14:27:49;39.50;24.90
18002;DHT22;9126;48.160;17.130;2022-08-03T14:30:17;39.70;24.80
18002;DHT22;9126;48.160;17.130;2022-08-03T14:32:44;39.90;24.70
18002;DHT22;9126;48.160;17.130;2022-08-03T14:35:11;40.20;24.60
18002;DHT22;9126;48.160;17.130;2022-08-03T14:37:38;40.40;24.40
18002;DHT22;9126;48.160;17.130;2022-08-03T14:40:06;40.50;24.20
18002;DHT22;9126;48.160;17.130;2022-08-03T14:42:33;40.60;23.90
18002;DHT22;9126;48.160;17.130;2022-08-03T14:45:02;40.70;23.70
18002;DHT22;9126;48.160;17.130;2022-08-03T14:47:29;40.80;23.70
18002;DHT22;9126;48.160;17.130;2022-08-03T14:49:56;40.70;23.60
18002;DHT22;9126;48.160;17.130;2022-08-03T14:52:23;40.40;23.70
18002;DHT22;9126;48.160;17.130;2022-08-03T14:54:50;40.10;23.70
18002;DHT22;9126;48.160;17.130;2022-08-03T14:57:17;39.70;23.80
18002;DHT22;9126;48.160;17.130;2022-08-03T14:59:44;39.40;24.00
18002;DHT22;9126;48.160;17.130;2022-08-03T15:02:13;39.50;24.10
18002;DHT22;9126;48.160;17.130;2022-08-03T15:04:40;39.50;24.00
18002;DHT22;9126;48.160;17.130;2022-08-03T15:07:07;39.20;24.00
18002;DHT22;9126;48.160;17.130;2022-08-03T15:09:37;38.80;24.20
18002;DHT22;9126;48.160;17.130;2022-08-03T15:12:04;38.40;24.40
18002;DHT22;9126;48.160;17.130;2022-08-03T15:14:32;38.10;24.60
18002;DHT22;9126;48.160;17.130;2022-08-03T15:16:59;38.00;24.80
18002;DHT22;9126;48.160;17.130;2022-08-03T15:19:27;37.80;24.90
18002;DHT22;9126;48.160;17.130;2022-08-03T15:21:54;37.70;25.00
18002;DHT22;9126;48.160;17.130;2022-08-03T15:24:21;38.10;25.00
18002;DHT22;9126;48.160;17.130;2022-08-03T15:26:49;38.60;24.80
18002;DHT22;9126;48.160;17.130;2022-08-03T15:29:16;38.70;24.50
18002;DHT22;9126;48.160;17.130;2022-08-03T15:31:44;38.70;24.50
18002;DHT22;9126;48.160;17.130;2022-08-03T15:34:11;38.70;24.50
18002;DHT22;9126;48.160;17.130;2022-08-03T15:36:39;38.70;24.50
18002;DHT22;9126;48.160;17.130;2022-08-03T15:39:06;39.00;24.50
18002;DHT22;9126;48.160;17.130;2022-08-03T15:41:33;39.10;24.30
18002;DHT22;9126;48.160;17.130;2022-08-03T15:44:00;38.90;24.50
18002;DHT22;9126;48.160;17.130;2022-08-03T15:46:28;38.50;24.60
18002;DHT22;9126;48.160;17.130;2022-08-03T15:48:55;38.10;24.80